Time;durP1;ratioP1;P1;durP2;ratioP2;P2;SDS_P1;SDS_P2;PMS_P1;PMS_P2;Temp;Humidity;BMP_temperature;BMP_pressure;BME280_temperature;BME280_humidity;BME280_pressure;Samples;Min_cycle;Max_cycle;Signal;HPM_P1;HPM_P2
2023/09/14 00:04:21;;;;;;;4.80;4.40;;;;;;;17.83;85.21;99680.84;217604;1258;139503;-80
2023/09/14 00:09:26;;;;;;;5.60;5.10;;;;;;;17.80;85.22;99683.18;217231;1258;141285;-80
2023/09/14 00:14:30;;;;;;;6.10;5.40;;;;;;;17.78;85.46;99687.41;217377;1262;139632;-78
2023/09/14 00:19:33;;;;;;;5.90;5.40;;;;;;;17.77;85.57;99689.79;217179;1258;139804;-77
2023/09/14 00:24:37;;;;;;;6.40;5.80;;;;;;;17.76;85.69;99694.11;217145;1262;140537;-79
2023/09/14 00:29:40;;;;;;;6.30;5.70;;;;;;;17.76;85.86;99691.63;217609;1262;139518;-80
2023/09/14 00:34:43;;;;;;;7.10;6.00;;;;;;;17.76;85.89;99696.38;217254;1261;141482;-73
2023/09/14 00:39:46;;;;;;;9.50;6.30;;;;;;;17.73;85.89;99707.45;217738;1260;140471;-73
2023/09/14 00:44:50;;;;;;;5.80;5.30;;;;;;;17.70;85.81;99711.83;217498;1259;139992;-73
2023/09/14 00:49:53;;;;;;;8.30;6.20;;;;;;;17.64;85.80;99717.77;217892;1256;140056;-78
2023/09/14 00:54:56;;;;;;;6.40;5.00;;;;;;;17.59;86.02;99717.63;217143;1262;140115;-74
2023/09/14 00:59:59;;;;;;;4.90;4.50;;;;;;;17.58;85.87;99722.60;217236;1257;140144;-77
2023/09/14 01:05:06;;;;;;;5.10;4.70;;;;;;;17.53;85.94;99726.23;217246;1262;140310;-72
2023/09/14 01:10:10;;;;;;;4.10;3.80;;;;;;;17.51;86.00;99732.51;217647;1256;139213;-73
2023/09/14 01:15:28;;;;;;;5.70;5.20;;;;;;;17.50;86.05;99743.88;219874;1258;140703;-73
2023/09/14 01:20:53;;;;;;;4.30;3.90;;;;;;;17.48;85.91;99746.48;220003;1259;141641;-78
2023/09/14 01:25:58;;;;;;;6.30;5.80;;;;;;;17.47;85.83;99742.17;220009;1259;140013;-80
2023/09/14 01:31:02;;;;;;;5.00;4.50;;;;;;;17.45;85.61;99746.88;217654;1262;140554;-73
2023/09/14 01:36:26;;;;;;;6.70;4.40;;;;;;;17.43;85.58;99749.65;219222;1259;140554;-73
2023/09/14 01:41:33;;;;;;;5.10;4.70;;;;;;;17.40;85.58;99753.36;217125;1259;140503;-73
2023/09/14 01:46:38;;;;;;;7.10;6.20;;;;;;;17.35;85.56;99758.48;217912;1259;139945;-74
2023/09/14 01:51:42;;;;;;;6.40;5.80;;;;;;;17.29;85.66;99763.38;218357;1262;140488;-76
2023/09/14 01:56:45;;;;;;;6.90;6.10;;;;;;;17.26;85.68;99767.37;218126;1259;140107;-75
2023/09/14 02:01:48;;;;;;;8.60;5.30;;;;;;;17.24;85.62;99765.92;217238;1262;140786;-75
2023/09/14 02:06:50;;;;;;;6.20;5.60;;;;;;;17.16;85.59;99762.07;217092;1259;141213;-75
2023/09/14 02:11:54;;;;;;;6.50;5.00;;;;;;;17.10;85.71;99761.16;217147;1257;140937;-74
2023/09/14 02:16:57;;;;;;;7.40;6.30;;;;;;;17.04;85.81;99757.30;217106;1260;140843;-73
2023/09/14 02:22:01;;;;;;;7.30;6.60;;;;;;;16.98;85.85;99761.59;217419;1261;141561;-73
2023/09/14 02:27:06;;;;;;;8.60;6.00;;;;;;;16.95;85.94;99765.10;218234;1260;141084;-71
2023/09/14 02:32:09;;;;;;;6.80;4.50;;;;;;;16.92;86.11;99766.88;217589;1258;139720;-73
2023/09/14 02:37:11;;;;;;;5.80;5.20;;;;;;;16.92;86.15;99766.55;217861;1259;141115;-76
2023/09/14 02:42:15;;;;;;;7.30;6.30;;;;;;;16.93;86.21;99767.85;217499;1260;139978;-78
2023/09/14 02:47:19;;;;;;;6.30;5.70;;;;;;;16.92;86.29;99775.02;217246;1258;140396;-78
2023/09/14 02:52:22;;;;;;;7.00;5.50;;;;;;;16.92;86.34;99781.36;217200;1262;141028;-76
2023/09/14 02:57:26;;;;;;;9.20;5.90;;;;;;;16.89;86.31;99792.36;217174;1262;139589;-77
2023/09/14 03:02:29;;;;;;;6.50;5.90;;;;;;;16.87;86.52;99805.94;217318;1258;140792;-77
2023/09/14 03:07:33;;;;;;;6.30;5.70;;;;;;;16.85;86.56;99817.52;217172;1259;140210;-79
2023/09/14 03:12:36;;;;;;;11.20;5.40;;;;;;;16.85;86.61;99824.63;217218;1259;140417;-79
2023/09/14 03:17:40;;;;;;;10.00;6.30;;;;;;;16.85;86.82;99835.98;217166;1262;140401;-78
2023/09/14 03:22:44;;;;;;;5.70;5.10;;;;;;;16.86;86.80;99841.59;220072;1257;141026;-77
2023/09/14 03:27:48;;;;;;;4.70;4.20;;;;;;;16.87;86.89;99847.83;218517;1260;139826;-77
2023/09/14 03:32:51;;;;;;;5.10;4.60;;;;;;;16.89;86.88;99846.10;217375;1262;140617;-77
2023/09/14 03:37:54;;;;;;;6.00;5.50;;;;;;;16.87;86.86;99851.86;217171;1259;140003;-79
2023/09/14 03:42:57;;;;;;;5.60;5.10;;;;;;;16.86;87.01;99860.38;217342;1260;140046;-90
2023/09/14 03:48:02;;;;;;;5.80;4.70;;;;;;;16.88;87.11;99862.21;217190;1262;140780;-83
2023/09/14 03:53:06;;;;;;;6.70;4.80;;;;;;;16.90;87.12;99876.20;217236;1262;140024;-79
2023/09/14 03:58:09;;;;;;;6.40;5.40;;;;;;;16.90;87.12;99883.73;217405;1260;139580;-80
2023/09/14 04:03:13;;;;;;;6.30;5.30;;;;;;;16.89;87.21;99890.05;217807;1258;140729;-74
2023/09/14 04:08:17;;;;;;;5.20;4.70;;;;;;;16.88;87.32;99899.84;217152;1260;139775;-77
2023/09/14 04:13:27;;;;;;;7.20;5.40;;;;;;;16.90;87.40;99910.73;217103;1258;141428;-77
2023/09/14 04:18:35;;;;;;;7.60;5.20;;;;;;;16.91;87.47;99916.86;217404;1260;139586;-74
2023/09/14 04:23:45;;;;;;;5.60;5.10;;;;;;;16.92;87.52;99919.55;217098;1257;139588;-76
2023/09/14 04:28:48;;;;;;;7.20;6.30;;;;;;;16.94;87.60;99917.56;217199;1260;139804;-74
2023/09/14 04:33:52;;;;;;;7.30;5.50;;;;;;;16.94;87.71;99922.62;217060;1262;139740;-71
2023/09/14 04:38:55;;;;;;;6.70;6.00;;;;;;;16.95;87.96;99927.09;217936;1259;141313;-69
2023/09/14 04:43:59;;;;;;;12.40;6.60;;;;;;;16.96;87.92;99929.52;217231;1259;139728;-74
2023/09/14 04:49:02;;;;;;;8.60;6.20;;;;;;;16.99;87.92;99931.51;217442;1259;140356;-73
2023/09/14 04:54:04;;;;;;;17.20;7.60;;;;;;;17.01;88.02;99937.00;217156;1257;140813;-83
2023/09/14 04:59:07;;;;;;;7.00;6.30;;;;;;;17.01;88.07;99941.68;217532;1262;141420;-75
2023/09/14 05:04:11;;;;;;;6.90;6.00;;;;;;;17.02;87.96;99945.66;217232;1257;142067;-73
2023/09/14 05:09:15;;;;;;;8.50;6.40;;;;;;;17.01;88.07;99948.41;217138;1262;139702;-73
2023/09/14 05:14:18;;;;;;;10.20;5.50;;;;;;;17.03;88.23;99950.63;217096;1262;140898;-72
2023/09/14 05:19:22;;;;;;;6.40;5.80;;;;;;;17.05;88.27;99956.22;217184;1257;140850;-77
2023/09/14 05:24:25;;;;;;;16.70;7.20;;;;;;;17.09;88.18;99959.77;217252;1259;140254;-75
2023/09/14 05:29:30;;;;;;;7.30;5.50;;;;;;;17.10;88.23;99961.55;218182;1262;139993;-77
2023/09/14 05:34:32;;;;;;;8.60;5.70;;;;;;;17.12;88.22;99965.53;217288;1262;140568;-78
2023/09/14 05:39:36;;;;;;;6.60;5.40;;;;;;;17.15;88.29;99965.29;217357;1262;139881;-70
2023/09/14 05:44:41;;;;;;;8.10;5.60;;;;;;;17.19;88.17;99971.00;217260;1262;140407;-70
2023/09/14 05:49:45;;;;;;;9.30;5.30;;;;;;;17.25;88.17;99969.31;218702;1262;139821;-69
2023/09/14 05:54:49;;;;;;;6.30;5.30;;;;;;;17.35;88.00;99965.97;217133;1262;140724;-69
2023/09/14 05:59:51;;;;;;;7.60;6.00;;;;;;;17.44;87.92;99970.02;218594;1259;140220;-71
2023/09/14 06:04:55;;;;;;;7.10;5.50;;;;;;;17.56;87.79;99973.17;217413;1261;140333;-72
2023/09/14 06:10:08;;;;;;;7.10;6.10;;;;;;;17.64;87.87;99975.86;217869;1259;139893;-71
2023/09/14 06:15:12;;;;;;;6.20;5.60;;;;;;;17.69;87.71;99981.09;217693;1258;142163;-73
2023/09/14 06:20:15;;;;;;;5.60;5.00;;;;;;;17.75;87.49;99988.27;217317;1262;139751;-73
2023/09/14 06:25:20;;;;;;;5.30;4.90;;;;;;;17.82;87.18;99992.40;217578;1263;139610;-72
2023/09/14 06:30:22;;;;;;;5.20;4.80;;;;;;;17.92;87.20;99996.14;217316;1261;140807;-73
2023/09/14 06:35:26;;;;;;;5.20;4.70;;;;;;;18.06;87.12;100002.11;217479;1262;139729;-75
2023/09/14 06:40:31;;;;;;;6.20;5.10;;;;;;;18.15;86.89;100004.06;217121;1259;139771;-77
2023/09/14 06:45:35;;;;;;;4.90;4.40;;;;;;;18.25;86.72;99998.94;217457;1260;139841;-73
2023/09/14 06:50:38;;;;;;;5.90;4.40;;;;;;;18.50;86.48;100005.10;217390;1258;141237;-70
2023/09/14 06:55:45;;;;;;;4.60;4.00;;;;;;;18.69;85.65;100008.39;217121;1257;140180;-72
2023/09/14 07:00:49;;;;;;;3.90;3.50;;;;;;;18.78;84.90;100017.02;217605;1263;140373;-70
2023/09/14 07:05:52;;;;;;;4.30;3.40;;;;;;;18.91;84.42;100022.17;217756;1260;141305;-70
2023/09/14 07:10:55;;;;;;;4.80;4.00;;;;;;;19.26;84.03;100020.66;219996;1257;140252;-77
2023/09/14 07:15:58;;;;;;;5.50;3.70;;;;;;;19.64;83.21;100029.70;217339;1258;141692;-73
2023/09/14 07:21:02;;;;;;;3.40;3.10;;;;;;;19.75;82.05;100038.84;220124;1258;141004;-73
2023/09/14 07:26:07;;;;;;;8.30;7.40;;;;;;;19.71;81.54;100047.97;219410;1257;142319;-75
2023/09/14 07:31:11;;;;;;;3.80;3.50;;;;;;;19.58;80.75;100049.67;217082;1263;141259;-74
2023/09/14 07:36:14;;;;;;;5.10;4.50;;;;;;;19.48;80.50;100053.23;217759;1257;579012;-72
2023/09/14 07:41:19;;;;;;;5.60;5.00;;;;;;;19.32;80.12;100059.84;217353;1261;139874;-71
2023/09/14 07:46:22;;;;;;;4.50;4.10;;;;;;;19.18;80.23;100061.77;218257;1257;140137;-75
2023/09/14 07:51:26;;;;;;;5.90;5.40;;;;;;;19.08;79.92;100065.08;217651;1263;142696;-71
2023/09/14 07:56:30;;;;;;;4.30;3.50;;;;;;;18.98;79.95;100072.94;217342;1261;140610;-81
2023/09/14 08:01:33;;;;;;;3.00;2.80;;;;;;;18.85;79.73;100080.45;217562;1261;141143;-84
2023/09/14 08:06:36;;;;;;;3.70;2.90;;;;;;;18.69;79.75;100082.86;217455;1258;141226;-77
2023/09/14 08:11:41;;;;;;;3.10;2.40;;;;;;;18.63;79.68;100090.76;217395;1259;139762;-73
2023/09/14 08:16:44;;;;;;;4.50;2.70;;;;;;;18.61;79.81;100094.33;217442;1262;139546;-82
2023/09/14 08:21:48;;;;;;;3.40;3.10;;;;;;;18.64;79.64;100094.53;217434;1262;140520;-82
2023/09/14 08:26:51;;;;;;;2.70;2.50;;;;;;;18.64;79.34;100103.87;217705;1261;140054;-73
2023/09/14 08:31:58;;;;;;;4.40;2.80;;;;;;;18.63;79.05;100102.69;217507;1262;140113;-90
2023/09/14 08:37:03;;;;;;;3.90;2.40;;;;;;;18.64;78.92;100107.59;218080;1258;140720;-75
2023/09/14 08:42:08;;;;;;;2.30;2.10;;;;;;;18.65;78.62;100112.55;217251;1258;140073;-75
2023/09/14 08:47:13;;;;;;;2.90;2.70;;;;;;;18.67;78.68;100112.21;217871;1260;141672;-76
2023/09/14 08:52:18;;;;;;;2.70;2.50;;;;;;;18.71;78.47;100114.88;217418;1258;140669;-84
2023/09/14 08:57:23;;;;;;;9.00;2.70;;;;;;;18.69;78.54;100114.95;218830;1257;143282;-79
2023/09/14 09:02:32;;;;;;;7.10;3.00;;;;;;;18.67;78.63;100118.47;218144;1257;140309;-77
2023/09/14 09:07:41;;;;;;;3.10;2.60;;;;;;;18.64;78.64;100121.79;220042;1257;140152;-78
2023/09/14 09:12:49;;;;;;;2.60;2.20;;;;;;;18.69;78.55;100125.31;219620;1257;140692;-77
2023/09/14 09:18:04;;;;;;;2.70;1.70;;;;;;;18.78;78.52;100129.48;218156;1257;142263;-75
2023/09/14 09:23:09;;;;;;;2.20;2.00;;;;;;;18.90;78.34;100133.79;219485;1257;141462;-76
2023/09/14 09:28:14;;;;;;;8.70;2.40;;;;;;;18.91;78.00;100134.34;217429;1257;139689;-77
2023/09/14 09:33:32;;;;;;;2.30;2.10;;;;;;;18.90;77.64;100135.37;217903;1258;139596;-76
2023/09/14 09:38:37;;;;;;;3.80;2.40;;;;;;;18.89;77.68;100138.82;217988;1257;139945;-75
2023/09/14 09:43:49;;;;;;;9.30;2.80;;;;;;;18.86;77.45;100146.30;217875;1257;141576;-73
2023/09/14 09:48:56;;;;;;;4.80;2.30;;;;;;;18.78;77.33;100152.17;217337;1258;140656;-75
2023/09/14 09:54:02;;;;;;;3.90;2.40;;;;;;;18.74;77.18;100157.27;218261;1257;141000;-77
2023/09/14 09:59:09;;;;;;;2.00;1.90;;;;;;;18.72;77.17;100158.56;218070;1257;139893;-75
2023/09/14 10:04:16;;;;;;;3.50;2.10;;;;;;;18.72;77.24;100159.87;217148;1262;140266;-76
2023/09/14 10:09:19;;;;;;;2.50;2.20;;;;;;;18.71;77.11;100163.54;217267;1260;141084;-75
2023/09/14 10:14:24;;;;;;;2.10;1.90;;;;;;;18.76;77.24;100166.77;217296;1258;140829;-74
2023/09/14 10:19:29;;;;;;;2.80;2.50;;;;;;;18.85;77.21;100166.99;217702;1259;140317;-76
2023/09/14 10:24:33;;;;;;;3.60;3.30;;;;;;;18.94;76.96;100173.80;217238;1262;141154;-76
2023/09/14 10:29:41;;;;;;;3.50;3.20;;;;;;;18.97;77.03;100174.79;217199;1259;140836;-74
2023/09/14 10:34:46;;;;;;;2.40;2.20;;;;;;;19.05;76.86;100182.27;218113;1257;140863;-75
2023/09/14 10:40:11;;;;;;;2.30;2.20;;;;;;;19.10;76.74;100181.96;217175;1257;141777;-74
2023/09/14 10:45:15;;;;;;;13.60;3.10;;;;;;;19.14;76.78;100180.21;219291;1257;140671;-77
2023/09/14 10:50:22;;;;;;;2.70;2.40;;;;;;;19.14;76.59;100182.48;217985;1259;141496;-76
2023/09/14 10:55:26;;;;;;;2.90;2.70;;;;;;;19.15;76.52;100185.83;217256;1262;141151;-75
2023/09/14 11:00:33;;;;;;;3.90;2.60;;;;;;;19.15;76.63;100185.29;218303;1258;140354;-78
2023/09/14 11:05:56;;;;;;;3.20;2.80;;;;;;;19.17;76.82;100182.69;217257;1257;140977;-75
2023/09/14 11:11:05;;;;;;;4.10;3.70;;;;;;;19.19;76.82;100184.66;218263;1257;139493;-75
2023/09/14 11:16:24;;;;;;;6.30;3.90;;;;;;;19.31;76.86;100187.00;217161;1257;140611;-73
2023/09/14 11:21:34;;;;;;;6.40;4.50;;;;;;;19.49;77.02;100189.11;217979;1262;140945;-75
2023/09/14 11:26:45;;;;;;;4.50;3.90;;;;;;;19.67;76.94;100191.08;217332;1262;140224;-76
2023/09/14 11:32:01;;;;;;;4.70;4.20;;;;;;;19.85;76.79;100188.73;218002;1257;140858;-73
2023/09/14 11:37:13;;;;;;;4.50;3.50;;;;;;;20.16;76.83;100183.46;217107;1261;140654;-73
2023/09/14 11:42:23;;;;;;;5.80;4.30;;;;;;;20.64;76.82;100177.94;217337;1257;140925;-77
2023/09/14 11:47:33;;;;;;;4.40;4.00;;;;;;;20.89;75.95;100179.89;217600;1258;139997;-74
2023/09/14 11:52:44;;;;;;;3.90;3.30;;;;;;;21.03;75.29;100177.86;217314;1258;141342;-71
2023/09/14 11:57:48;;;;;;;4.80;4.30;;;;;;;21.16;75.04;100182.27;217735;1257;140912;-73
2023/09/14 12:02:53;;;;;;;6.80;3.40;;;;;;;21.37;74.65;100192.45;217830;1257;141394;-76
2023/09/14 12:07:57;;;;;;;4.20;3.90;;;;;;;21.39;73.92;100196.98;218041;1257;140095;-72
2023/09/14 12:13:15;;;;;;;3.90;3.50;;;;;;;21.34;73.61;100194.67;217499;1258;141588;-72
2023/09/14 12:18:19;;;;;;;5.10;3.80;;;;;;;21.40;73.47;100190.55;217630;1262;141409;-73
2023/09/14 12:23:24;;;;;;;4.00;3.70;;;;;;;21.48;73.03;100192.92;217347;1256;139592;-79
2023/09/14 12:28:27;;;;;;;4.80;3.90;;;;;;;21.55;72.72;100196.07;217384;1257;140696;-74
2023/09/14 12:33:29;;;;;;;4.80;3.70;;;;;;;21.53;72.43;100194.64;217717;1258;142110;-79
2023/09/14 12:38:33;;;;;;;4.30;3.40;;;;;;;21.46;72.20;100193.92;217471;1257;139822;-72
2023/09/14 12:43:50;;;;;;;5.90;4.20;;;;;;;21.39;72.06;100201.48;217605;1258;140945;-71
2023/09/14 12:48:58;;;;;;;3.90;3.50;;;;;;;21.39;72.16;100199.91;217471;1258;140322;-72
2023/09/14 12:54:02;;;;;;;3.10;2.90;;;;;;;21.42;71.63;100195.51;217959;1258;139976;-74
2023/09/14 12:59:06;;;;;;;3.30;2.80;;;;;;;21.42;71.30;100195.23;218089;1262;140427;-72
2023/09/14 13:04:10;;;;;;;3.50;2.80;;;;;;;21.48;71.13;100196.34;218389;1257;140507;-73
2023/09/14 13:09:21;;;;;;;3.70;2.50;;;;;;;21.52;70.96;100192.00;218427;1258;141456;-78
2023/09/14 13:14:27;;;;;;;2.20;2.10;;;;;;;21.38;70.71;100194.06;218026;1258;140732;-78
2023/09/14 13:19:31;;;;;;;4.00;3.20;;;;;;;21.33;71.09;100197.18;217499;1257;140457;-77
2023/09/14 13:24:35;;;;;;;2.90;2.60;;;;;;;21.34;71.09;100202.55;217631;1262;139884;-78
2023/09/14 13:29:40;;;;;;;3.50;2.90;;;;;;;21.35;70.90;100203.61;218544;1261;140335;-75
2023/09/14 13:34:43;;;;;;;3.70;2.60;;;;;;;21.29;70.73;100199.59;217409;1257;140390;-71
2023/09/14 13:39:48;;;;;;;3.70;2.60;;;;;;;21.24;70.61;100205.56;217698;1257;140339;-73
2023/09/14 13:44:51;;;;;;;2.20;2.00;;;;;;;21.24;70.65;100204.42;217490;1259;140180;-81
2023/09/14 13:49:54;;;;;;;2.00;1.90;;;;;;;21.24;70.59;100198.77;217650;1258;140053;-77
2023/09/14 13:54:58;;;;;;;4.00;2.80;;;;;;;21.29;70.82;100201.54;217614;1256;141188;-73
2023/09/14 14:00:10;;;;;;;3.00;2.10;;;;;;;21.32;70.61;100196.61;217686;1257;139759;-80
2023/09/14 14:05:15;;;;;;;1.90;1.80;;;;;;;21.36;70.49;100201.38;217312;1259;141622;-73
2023/09/14 14:10:18;;;;;;;2.30;2.10;;;;;;;21.32;70.25;100205.45;217340;1258;140038;-74
2023/09/14 14:15:25;;;;;;;2.40;2.00;;;;;;;21.22;70.23;100207.52;218371;1257;140670;-77
2023/09/14 14:20:28;;;;;;;9.50;7.00;;;;;;;21.05;70.28;100205.91;218340;1257;141916;-72
2023/09/14 14:25:32;;;;;;;3.10;2.50;;;;;;;20.91;70.29;100204.36;218077;1258;140521;-75
2023/09/14 14:30:36;;;;;;;5.10;3.40;;;;;;;20.83;70.39;100208.10;217697;1257;140983;-71
2023/09/14 14:35:40;;;;;;;4.50;2.60;;;;;;;20.83;70.39;100208.84;217614;1257;139865;-75
2023/09/14 14:40:42;;;;;;;3.50;2.50;;;;;;;20.91;70.17;100206.85;217792;1259;140177;-75
2023/09/14 14:46:04;;;;;;;3.90;2.60;;;;;;;21.01;69.87;100207.00;217222;1262;141102;-81
2023/09/14 14:51:07;;;;;;;2.50;2.30;;;;;;;21.04;69.77;100206.59;217356;1258;140188;-78
2023/09/14 14:56:11;;;;;;;2.00;1.90;;;;;;;21.07;69.54;100211.48;216981;1261;140652;-72
2023/09/14 15:01:15;;;;;;;2.20;1.90;;;;;;;21.00;69.18;100215.85;217074;1257;139923;-72
2023/09/14 15:06:19;;;;;;;1.50;1.30;;;;;;;20.86;68.84;100216.13;220136;1257;140982;-73
2023/09/14 15:11:22;;;;;;;4.30;1.80;;;;;;;20.79;69.01;100220.56;220074;1257;143372;-72
2023/09/14 15:16:25;;;;;;;1.40;1.40;;;;;;;20.71;68.81;100224.41;220021;1257;140970;-74
2023/09/14 15:21:29;;;;;;;1.90;1.70;;;;;;;20.63;68.83;100224.84;219527;1259;140486;-73
2023/09/14 15:26:33;;;;;;;7.60;1.30;;;;;;;20.52;68.89;100231.40;217982;1257;142436;-73
2023/09/14 15:31:37;;;;;;;2.30;1.80;;;;;;;20.33;68.62;100240.86;218338;1259;139940;-73
2023/09/14 15:36:45;;;;;;;1.90;1.80;;;;;;;20.19;68.89;100243.04;217114;1258;140392;-69
2023/09/14 15:41:50;;;;;;;3.10;1.90;;;;;;;20.15;69.05;100242.71;217116;1260;139700;-69
2023/09/14 15:46:53;;;;;;;4.20;2.10;;;;;;;20.16;69.36;100247.31;217296;1258;140151;-70
2023/09/14 15:51:57;;;;;;;2.00;1.90;;;;;;;20.18;69.35;100242.77;217181;1257;140016;-70
2023/09/14 15:57:04;;;;;;;2.80;1.80;;;;;;;20.08;69.21;100246.02;217094;1258;140069;-73
2023/09/14 16:02:06;;;;;;;1.50;1.30;;;;;;;19.96;69.00;100250.88;217175;1257;141116;-70
2023/09/14 16:07:09;;;;;;;3.30;1.80;;;;;;;19.81;69.10;100256.27;217779;1257;140234;-69
2023/09/14 16:12:13;;;;;;;1.60;1.30;;;;;;;19.70;69.19;100257.65;218171;1259;141407;-70
2023/09/14 16:17:18;;;;;;;2.80;1.70;;;;;;;19.55;69.42;100257.27;217422;1259;139873;-74
2023/09/14 16:22:23;;;;;;;1.30;1.10;;;;;;;19.37;69.69;100259.36;217203;1262;140041;-73
2023/09/14 16:27:28;;;;;;;1.10;1.00;;;;;;;19.23;70.09;100265.84;217896;1258;140999;-74
2023/09/14 16:32:34;;;;;;;2.30;1.10;;;;;;;19.12;70.43;100266.76;218004;1257;140563;-75
2023/09/14 16:37:38;;;;;;;0.70;0.70;;;;;;;18.98;70.78;100273.25;217232;1258;140993;-80
2023/09/14 16:42:47;;;;;;;1.30;1.20;;;;;;;18.84;71.21;100272.05;217861;1260;141626;-73
2023/09/14 16:47:51;;;;;;;1.50;1.00;;;;;;;18.74;71.47;100277.77;217076;1262;141217;-74
2023/09/14 16:52:54;;;;;;;1.40;1.00;;;;;;;18.63;71.67;100279.15;218935;1256;140838;-86
2023/09/14 16:57:57;;;;;;;5.40;1.80;;;;;;;18.54;72.12;100286.98;217414;1257;141222;-86
2023/09/14 17:03:00;;;;;;;1.20;1.10;;;;;;;18.46;72.41;100287.96;217899;1262;140713;-83
2023/09/14 17:08:04;;;;;;;2.30;1.60;;;;;;;18.36;72.99;100293.92;217510;1257;139926;-88
2023/09/14 17:13:08;;;;;;;5.90;2.50;;;;;;;18.27;73.25;100295.83;218026;1258;140242;-85
2023/09/14 17:18:13;;;;;;;5.40;2.80;;;;;;;18.19;73.71;100297.40;218488;1257;140235;-86
2023/09/14 17:23:17;;;;;;;14.00;1.60;;;;;;;18.07;73.97;100306.14;217582;1261;140819;-87
2023/09/14 17:28:23;;;;;;;0.90;0.80;;;;;;;17.99;74.49;100311.66;217604;1257;142541;-86
2023/09/14 17:33:26;;;;;;;0.70;0.70;;;;;;;17.92;74.99;100313.00;218496;1259;247857;-73
2023/09/14 17:38:30;;;;;;;1.70;1.60;;;;;;;17.83;75.19;100310.98;218170;1257;139739;-76
2023/09/14 17:43:32;;;;;;;3.40;2.30;;;;;;;17.79;75.52;100318.32;217858;1258;141233;-76
2023/09/14 17:48:36;;;;;;;3.70;2.30;;;;;;;17.79;75.72;100318.96;217429;1262;140593;-75
2023/09/14 17:53:40;;;;;;;1.40;1.00;;;;;;;17.80;76.00;100323.39;218060;1257;141667;-75
2023/09/14 17:58:45;;;;;;;3.70;1.10;;;;;;;17.77;76.15;100323.33;217559;1257;142475;-77
2023/09/14 18:03:49;;;;;;;4.30;1.50;;;;;;;17.74;76.24;100325.64;217357;1262;140648;-73
2023/09/14 18:08:56;;;;;;;1.40;1.30;;;;;;;17.71;76.46;100326.95;217114;1262;140703;-77
2023/09/14 18:13:58;;;;;;;3.20;1.30;;;;;;;17.67;76.48;100330.29;216782;1262;140194;-76
2023/09/14 18:19:00;;;;;;;4.30;2.00;;;;;;;17.64;76.62;100339.87;217060;1259;140200;-75
2023/09/14 18:24:03;;;;;;;2.60;1.70;;;;;;;17.61;76.71;100340.10;216993;1262;141267;-77
2023/09/14 18:29:06;;;;;;;2.20;1.40;;;;;;;17.59;76.99;100340.96;217109;1259;140230;-75
2023/09/14 18:34:08;;;;;;;9.70;3.10;;;;;;;17.58;77.08;100342.79;217979;1259;140559;-73
2023/09/14 18:39:14;;;;;;;7.70;1.80;;;;;;;17.56;77.36;100347.26;217395;1259;140652;-73
2023/09/14 18:44:17;;;;;;;3.20;2.40;;;;;;;17.51;77.53;100357.05;217402;1259;139763;-73
2023/09/14 18:49:20;;;;;;;2.10;1.90;;;;;;;17.45;77.82;100357.68;219036;1257;140053;-75
2023/09/14 18:54:22;;;;;;;3.00;2.00;;;;;;;17.41;77.99;100368.95;218336;1257;139752;-74
2023/09/14 18:59:28;;;;;;;2.30;2.00;;;;;;;17.35;77.96;100379.60;219629;1258;140456;-71
2023/09/14 19:04:36;;;;;;;5.20;2.30;;;;;;;17.28;78.28;100384.85;219024;1259;140936;-72
2023/09/14 19:09:41;;;;;;;5.70;2.60;;;;;;;17.28;78.52;100381.88;219895;1258;141467;-71
2023/09/14 19:14:44;;;;;;;2.60;1.50;;;;;;;17.26;78.69;100381.22;217483;1261;140565;-74
2023/09/14 19:19:48;;;;;;;2.20;2.00;;;;;;;17.22;78.83;100379.90;217983;1259;139812;-75
2023/09/14 19:24:50;;;;;;;6.30;3.30;;;;;;;17.20;79.15;100382.59;217103;1262;140587;-74
2023/09/14 19:29:53;;;;;;;3.40;2.40;;;;;;;17.16;79.43;100383.00;217079;1261;140403;-78
2023/09/14 19:34:57;;;;;;;2.50;2.10;;;;;;;17.11;79.62;100384.50;217533;1258;683495;-76
2023/09/14 19:40:01;;;;;;;4.10;2.70;;;;;;;17.08;79.82;100388.15;217069;1259;140720;-77
2023/09/14 19:45:04;;;;;;;4.40;2.70;;;;;;;17.07;80.04;100391.98;217721;1259;140242;-74
2023/09/14 19:50:11;;;;;;;6.60;3.00;;;;;;;17.06;80.15;100397.25;218506;1258;139888;-75
2023/09/14 19:55:15;;;;;;;4.40;2.90;;;;;;;17.05;80.30;100397.78;217044;1259;140495;-74
2023/09/14 20:00:18;;;;;;;6.30;2.70;;;;;;;17.01;80.46;100401.69;218000;1260;141446;-72
2023/09/14 20:05:22;;;;;;;5.20;3.10;;;;;;;16.98;80.41;100404.89;217318;1259;142345;-72
2023/09/14 20:10:30;;;;;;;3.30;2.30;;;;;;;16.95;80.70;100409.19;217238;1258;141202;-75
2023/09/14 20:15:33;;;;;;;5.50;2.70;;;;;;;16.90;80.82;100412.23;217772;1257;140179;-76
2023/09/14 20:20:38;;;;;;;5.10;2.50;;;;;;;16.87;80.81;100416.23;217641;1260;140089;-75
2023/09/14 20:25:40;;;;;;;7.30;2.50;;;;;;;16.82;81.18;100420.25;217454;1260;140554;-76
2023/09/14 20:30:46;;;;;;;2.70;2.50;;;;;;;16.80;81.36;100417.45;217847;1262;141082;-80
2023/09/14 20:35:49;;;;;;;;;;;;;;;16.79;81.55;100423.10;218511;1258;142874;-80
2023/09/14 20:40:54;;;;;;;7.60;2.90;;;;;;;16.77;81.76;100425.08;217658;1258;127597;-78
2023/09/14 20:45:57;;;;;;;2.60;2.40;;;;;;;16.76;81.73;100425.93;217791;1260;140894;-79
2023/09/14 20:51:10;;;;;;;3.00;2.70;;;;;;;16.75;81.93;100431.30;217888;1262;140419;-78
2023/09/14 20:56:13;;;;;;;7.30;2.70;;;;;;;16.74;81.96;100425.48;218716;1258;140097;-74
2023/09/14 21:01:18;;;;;;;3.30;2.50;;;;;;;16.74;82.03;100430.66;218846;1262;140253;-72
2023/09/14 21:06:26;;;;;;;3.00;1.90;;;;;;;16.71;82.02;100427.23;219337;1258;140136;-73
2023/09/14 21:11:29;;;;;;;2.50;2.30;;;;;;;16.66;82.25;100428.16;218726;1257;140302;-76
2023/09/14 21:16:33;;;;;;;3.00;2.10;;;;;;;16.60;82.22;100431.48;218082;1257;140117;-83
2023/09/14 21:21:38;;;;;;;13.10;3.20;;;;;;;16.60;82.65;100442.34;218197;1262;141585;-82
2023/09/14 21:26:43;;;;;;;8.50;2.70;;;;;;;16.63;82.73;100443.61;217248;1260;237697;-73
2023/09/14 21:31:48;;;;;;;6.50;2.00;;;;;;;16.64;82.86;100449.71;217150;1262;140710;-74
2023/09/14 21:36:51;;;;;;;2.40;2.10;;;;;;;16.64;82.76;100449.13;217775;1262;141004;-74
2023/09/14 21:41:54;;;;;;;19.00;2.70;;;;;;;16.63;82.81;100451.16;217138;1262;139863;-74
2023/09/14 21:47:01;;;;;;;2.40;2.10;;;;;;;16.60;82.90;100452.35;217152;1259;140436;-75
2023/09/14 21:52:06;;;;;;;5.10;2.60;;;;;;;16.58;82.99;100456.23;217166;1262;140924;-75
2023/09/14 21:57:10;;;;;;;8.50;2.40;;;;;;;16.56;83.05;100454.05;217300;1259;140472;-77
2023/09/14 22:02:13;;;;;;;2.80;2.30;;;;;;;16.55;82.89;100455.05;217117;1262;140264;-74
2023/09/14 22:07:16;;;;;;;2.50;2.10;;;;;;;16.55;82.82;100458.39;217217;1262;140791;-73
2023/09/14 22:12:21;;;;;;;3.60;2.00;;;;;;;16.56;82.65;100461.14;217783;1262;140066;-77
2023/09/14 22:17:24;;;;;;;3.50;2.60;;;;;;;16.55;82.40;100465.88;217153;1257;140110;-80
2023/09/14 22:22:27;;;;;;;2.50;1.90;;;;;;;16.55;82.09;100469.80;217104;1261;141319;-74
2023/09/14 22:27:31;;;;;;;2.00;1.70;;;;;;;16.53;81.71;100471.83;217250;1262;140362;-72
2023/09/14 22:32:35;;;;;;;7.50;2.50;;;;;;;16.51;81.36;100470.91;217976;1258;140668;-72
2023/09/14 22:37:38;;;;;;;3.30;2.30;;;;;;;16.49;80.70;100471.45;217707;1258;140267;-72
2023/09/14 22:42:53;;;;;;;3.50;1.90;;;;;;;16.45;80.11;100471.89;218437;1257;140407;-75
2023/09/14 22:47:57;;;;;;;2.90;2.50;;;;;;;16.40;79.32;100473.39;219415;1259;141041;-75
2023/09/14 22:53:01;;;;;;;2.30;1.60;;;;;;;16.37;78.55;100474.50;217270;1260;142865;-78
2023/09/14 22:58:04;;;;;;;3.00;2.10;;;;;;;16.35;78.22;100477.48;217544;1259;139888;-75
2023/09/14 23:03:08;;;;;;;3.70;1.90;;;;;;;16.32;77.69;100479.94;219411;1261;140864;-80
2023/09/14 23:08:12;;;;;;;2.80;1.90;;;;;;;16.29;77.37;100481.79;220037;1259;140214;-83
2023/09/14 23:13:17;;;;;;;2.50;1.90;;;;;;;16.25;77.36;100489.76;218111;1261;142300;-73